Terminal Aerodrome Forecast
Issued by NWS

Home | Current Version | Previous Version | Text Only | Print | Product List | Glossary On
Versions: 1 2 3 4 5 6 7 8 9 10 11 12 13 14
000
FTUS43 KTOP 242320
TAFMHK
TAF
KMHK 242320Z 2500/2524 17010KT P6SM BKN150
     FM250600 17006KT P6SM VCTS SCT080CB BKN150
     FM251200 18005KT P6SM SHRA VCTS BKN060CB=

USA.gov is the U.S. government's official web portal to all federal, state and local government web resources and services.